createdAt,value
2023-07-21T00:01:09.458Z,26.90
2023-07-21T00:03:36.641Z,27.25
2023-07-21T00:06:05.412Z,27.11
2023-07-21T00:08:32.029Z,27.33
2023-07-21T00:10:58.877Z,27.37
2023-07-21T00:13:29.032Z,26.72
2023-07-21T00:15:55.892Z,27.00
2023-07-21T00:18:22.860Z,27.07
2023-07-21T00:20:49.984Z,26.53
2023-07-21T00:23:18.361Z,27.33
2023-07-21T00:25:47.975Z,27.04
2023-07-21T00:28:14.755Z,27.16
2023-07-21T00:30:41.411Z,26.92
2023-07-21T00:33:08.084Z,27.08
2023-07-21T00:35:36.044Z,26.68
2023-07-21T00:38:02.794Z,26.79
2023-07-21T00:40:31.504Z,27.19
2023-07-21T00:43:00.883Z,27.13
2023-07-21T00:45:29.342Z,26.98
2023-07-21T00:47:57.375Z,26.70
2023-07-21T00:50:25.336Z,26.90
2023-07-21T00:52:52.228Z,26.73
2023-07-21T00:55:18.820Z,26.75
2023-07-21T00:57:46.940Z,27.19
2023-07-21T01:00:14.229Z,26.51
2023-07-21T01:02:41.312Z,26.59
2023-07-21T01:05:08.107Z,26.35
2023-07-21T01:07:34.775Z,26.88
2023-07-21T01:10:01.556Z,26.66
2023-07-21T01:12:28.206Z,26.92
2023-07-21T01:14:55.100Z,26.66
2023-07-21T01:17:22.051Z,26.83
2023-07-21T01:19:50.083Z,26.87
2023-07-21T01:22:46.253Z,26.76
2023-07-21T01:25:13.362Z,26.54
2023-07-21T01:27:41.135Z,26.60
2023-07-21T01:30:12.005Z,26.24
2023-07-21T01:32:39.888Z,26.90
2023-07-21T01:35:09.451Z,26.63
2023-07-21T01:37:39.828Z,26.56
2023-07-21T01:40:12.008Z,26.80
2023-07-21T01:42:38.664Z,27.18
2023-07-21T01:45:05.988Z,26.72
2023-07-21T01:47:35.840Z,26.59
2023-07-21T01:50:03.174Z,26.31
2023-07-21T01:52:31.157Z,26.68
2023-07-21T01:55:08.594Z,26.44
2023-07-21T01:57:41.608Z,26.57
2023-07-21T02:00:11.750Z,27.09
2023-07-21T02:02:39.420Z,26.97
2023-07-21T02:05:07.125Z,26.64
2023-07-21T02:07:33.724Z,27.13
2023-07-21T02:10:00.515Z,26.62
2023-07-21T02:12:27.158Z,27.10
2023-07-21T02:14:53.770Z,26.16
2023-07-21T02:17:20.382Z,26.66
2023-07-21T02:19:47.026Z,26.18
2023-07-21T02:22:14.005Z,26.28
2023-07-21T02:24:41.079Z,26.26
2023-07-21T02:27:08.634Z,27.26
2023-07-21T02:29:37.606Z,26.92
2023-07-21T02:32:04.480Z,27.07
2023-07-21T02:34:31.159Z,26.87
2023-07-21T02:36:57.739Z,27.15
2023-07-21T02:39:24.342Z,27.06
2023-07-21T02:41:50.967Z,26.74
2023-07-21T02:44:17.723Z,26.33
2023-07-21T02:46:44.365Z,26.67
2023-07-21T02:49:11.023Z,26.95
2023-07-21T02:51:38.220Z,26.80
2023-07-21T02:54:04.800Z,26.50
2023-07-21T02:56:31.422Z,26.77
2023-07-21T02:58:58.397Z,26.79
2023-07-21T03:01:25.019Z,26.65
2023-07-21T03:03:55.539Z,26.75
2023-07-21T03:06:22.746Z,26.99
2023-07-21T03:08:49.632Z,26.87
2023-07-21T03:11:18.677Z,27.10
2023-07-21T03:13:45.683Z,26.67
2023-07-21T03:16:14.240Z,26.26
2023-07-21T03:18:40.940Z,26.93
2023-07-21T03:21:07.548Z,26.74
2023-07-21T03:23:34.176Z,26.56
2023-07-21T03:26:00.860Z,26.29
2023-07-21T03:28:28.118Z,27.05
2023-07-21T03:31:00.902Z,27.17
2023-07-21T03:33:27.796Z,26.08
2023-07-21T03:36:01.331Z,26.28
2023-07-21T03:38:31.159Z,26.22
2023-07-21T03:41:04.907Z,26.24
2023-07-21T03:43:31.671Z,26.39
2023-07-21T03:45:59.789Z,27.13
2023-07-21T03:48:27.116Z,26.35
2023-07-21T03:51:11.605Z,27.06
2023-07-21T03:53:38.256Z,26.29
2023-07-21T03:56:07.945Z,26.33
2023-07-21T03:58:34.624Z,26.01
2023-07-21T04:01:01.486Z,27.10
2023-07-21T04:03:28.428Z,26.79
2023-07-21T04:05:55.156Z,26.53
2023-07-21T04:08:21.886Z,26.04
2023-07-21T04:10:48.528Z,27.10
2023-07-21T04:13:15.164Z,26.03
2023-07-21T04:15:41.900Z,26.96
2023-07-21T04:18:08.612Z,26.12
2023-07-21T04:20:35.192Z,26.40
2023-07-21T04:23:01.918Z,26.97
2023-07-21T04:25:29.025Z,27.04
2023-07-21T04:27:56.332Z,26.13
2023-07-21T04:30:23.926Z,25.99
2023-07-21T04:32:50.942Z,27.31
2023-07-21T04:35:17.770Z,27.09
2023-07-21T04:37:44.967Z,26.38
2023-07-21T04:40:12.609Z,26.33
2023-07-21T04:42:39.963Z,25.88
2023-07-21T04:45:12.570Z,26.12
2023-07-21T04:47:42.322Z,27.05
2023-07-21T04:50:09.726Z,26.17
2023-07-21T04:52:38.202Z,26.65
2023-07-21T04:55:06.802Z,27.37
2023-07-21T04:57:34.114Z,26.71
2023-07-21T05:00:00.930Z,26.33
2023-07-21T05:02:36.399Z,27.14
2023-07-21T05:05:03.035Z,27.21
2023-07-21T05:07:30.716Z,27.02
2023-07-21T05:09:57.374Z,26.73
2023-07-21T05:12:26.851Z,26.33
2023-07-21T05:14:53.498Z,26.58
2023-07-21T05:17:20.384Z,27.18
2023-07-21T05:19:47.157Z,26.30
2023-07-21T05:22:16.684Z,26.05
2023-07-21T05:24:44.430Z,26.25
2023-07-21T05:27:11.238Z,27.13
2023-07-21T05:29:38.071Z,26.10
2023-07-21T05:32:06.731Z,26.56
2023-07-21T05:34:34.182Z,27.20
2023-07-21T05:37:01.345Z,27.30
2023-07-21T05:39:29.319Z,26.07
2023-07-21T05:41:57.522Z,26.16
2023-07-21T05:44:24.205Z,26.61
2023-07-21T05:46:52.546Z,26.54
2023-07-21T05:49:19.212Z,27.50
2023-07-21T05:51:45.804Z,27.25
2023-07-21T05:54:12.386Z,26.55
2023-07-21T05:56:40.538Z,26.69
2023-07-21T05:59:07.568Z,26.27
2023-07-21T06:01:37.222Z,27.34
2023-07-21T06:04:05.015Z,27.56
2023-07-21T06:06:32.286Z,27.19
2023-07-21T06:08:59.285Z,26.25
2023-07-21T06:11:26.585Z,27.52
2023-07-21T06:13:54.280Z,26.78
2023-07-21T06:16:24.357Z,26.37
2023-07-21T06:18:52.056Z,27.67
2023-07-21T06:21:19.827Z,26.94
2023-07-21T06:23:46.606Z,26.42
2023-07-21T06:26:13.259Z,27.03
2023-07-21T06:28:39.868Z,26.46
2023-07-21T06:31:06.483Z,27.17
2023-07-21T06:33:33.137Z,27.09
2023-07-21T06:35:59.749Z,26.99
2023-07-21T06:38:26.416Z,26.47
2023-07-21T06:40:53.187Z,26.58
2023-07-21T06:43:19.878Z,26.84
2023-07-21T06:45:47.004Z,26.28
2023-07-21T06:48:14.009Z,26.37
2023-07-21T06:50:40.764Z,26.66
2023-07-21T06:53:07.688Z,27.20
2023-07-21T06:55:34.985Z,27.41
2023-07-21T06:58:04.840Z,26.43
2023-07-21T07:00:31.898Z,26.82
2023-07-21T07:02:59.200Z,27.38
2023-07-21T07:05:25.956Z,27.57
2023-07-21T07:07:54.436Z,26.44
2023-07-21T07:10:21.378Z,27.42
2023-07-21T07:12:48.038Z,26.66
2023-07-21T07:15:14.727Z,27.41
2023-07-21T07:17:41.432Z,27.87
2023-07-21T07:20:11.340Z,27.83
2023-07-21T07:22:38.929Z,27.67
2023-07-21T07:25:06.125Z,27.55
2023-07-21T07:27:32.806Z,27.84
2023-07-21T07:29:59.420Z,27.51
2023-07-21T07:32:26.100Z,27.76
2023-07-21T07:34:56.884Z,27.83
2023-07-21T07:37:24.408Z,27.41
2023-07-21T07:39:50.989Z,27.04
2023-07-21T07:42:17.736Z,27.25
2023-07-21T07:44:44.442Z,27.02
2023-07-21T07:47:11.104Z,26.85
2023-07-21T07:49:37.807Z,27.76
2023-07-21T07:52:04.613Z,27.00
2023-07-21T07:54:31.204Z,27.28
2023-07-21T07:56:57.893Z,27.19
2023-07-21T07:59:24.515Z,27.61
2023-07-21T08:01:51.196Z,28.26
2023-07-21T08:04:20.714Z,27.83
2023-07-21T08:06:47.339Z,28.46
2023-07-21T08:09:14.525Z,27.13
2023-07-21T08:11:41.098Z,28.01
2023-07-21T08:14:07.726Z,27.92
2023-07-21T08:16:37.061Z,28.48
2023-07-21T08:19:04.062Z,27.18
2023-07-21T08:21:30.742Z,28.55
2023-07-21T08:23:57.325Z,28.30
2023-07-21T08:26:23.966Z,27.85
2023-07-21T08:28:54.438Z,28.05
2023-07-21T08:31:21.397Z,27.50
2023-07-21T08:33:48.061Z,28.19
2023-07-21T08:36:14.722Z,27.79
2023-07-21T08:38:41.393Z,28.17
2023-07-21T08:41:09.166Z,27.33
2023-07-21T08:43:36.191Z,27.87
2023-07-21T08:46:04.921Z,27.74
2023-07-21T08:48:31.716Z,27.92
2023-07-21T08:50:58.405Z,27.23
2023-07-21T08:53:28.094Z,27.30
2023-07-21T08:55:55.998Z,28.37
2023-07-21T08:58:25.161Z,27.74
2023-07-21T09:00:53.777Z,27.76
2023-07-21T09:03:28.291Z,28.17
2023-07-21T09:05:57.280Z,28.09
2023-07-21T09:08:25.627Z,28.62
2023-07-21T09:10:52.311Z,27.26
2023-07-21T09:13:19.562Z,28.09
2023-07-21T09:15:53.362Z,28.49
2023-07-21T09:18:20.036Z,27.50
2023-07-21T09:20:47.647Z,27.21
2023-07-21T09:23:14.602Z,27.40
2023-07-21T09:25:49.813Z,28.04
2023-07-21T09:28:16.480Z,27.56
2023-07-21T09:30:53.099Z,27.75
2023-07-21T09:33:24.969Z,27.53
2023-07-21T09:36:03.537Z,28.49
2023-07-21T09:38:30.126Z,28.26
2023-07-21T09:41:01.851Z,27.94
2023-07-21T09:43:29.809Z,27.48
2023-07-21T09:45:58.072Z,28.04
2023-07-21T09:48:24.712Z,27.51
2023-07-21T09:50:51.369Z,27.45
2023-07-21T09:53:21.250Z,27.58
2023-07-21T09:55:47.875Z,27.60
2023-07-21T09:58:14.477Z,27.49
2023-07-21T10:00:41.342Z,28.33
2023-07-21T10:03:08.779Z,27.38
2023-07-21T10:05:41.518Z,26.94
2023-07-21T10:08:10.616Z,27.09
2023-07-21T10:10:37.778Z,27.87
2023-07-21T10:13:05.571Z,27.28
2023-07-21T10:15:33.187Z,27.12
2023-07-21T10:18:09.378Z,27.74
2023-07-21T10:20:52.284Z,27.54
2023-07-21T10:23:25.104Z,27.37
2023-07-21T10:26:04.490Z,28.60
2023-07-21T10:28:31.284Z,27.51
2023-07-21T10:31:26.416Z,27.81
2023-07-21T10:34:05.279Z,28.11
2023-07-21T10:36:50.083Z,28.45
2023-07-21T10:39:17.836Z,28.54
2023-07-21T10:41:48.859Z,27.31
2023-07-21T10:44:15.592Z,28.63
2023-07-21T10:46:43.396Z,28.23
2023-07-21T10:49:10.545Z,28.55
2023-07-21T10:51:41.043Z,28.22
2023-07-21T10:54:08.209Z,27.59
2023-07-21T10:56:41.306Z,28.36
2023-07-21T10:59:14.644Z,27.55
2023-07-21T11:01:47.482Z,28.39
2023-07-21T11:04:18.178Z,28.77
2023-07-21T11:06:46.366Z,28.29
2023-07-21T11:09:13.460Z,28.72
2023-07-21T11:11:46.963Z,28.95
2023-07-21T11:14:14.263Z,28.77
2023-07-21T11:16:45.250Z,28.14
2023-07-21T11:19:12.098Z,29.01
2023-07-21T11:21:39.749Z,29.10
2023-07-21T11:24:09.616Z,27.85
2023-07-21T11:26:37.677Z,28.70
2023-07-21T11:29:07.927Z,29.23
2023-07-21T11:31:35.268Z,27.85
2023-07-21T11:34:02.477Z,29.08
2023-07-21T11:36:32.472Z,28.29
2023-07-21T11:39:07.986Z,28.75
2023-07-21T11:41:37.750Z,28.84
2023-07-21T11:44:06.823Z,28.43
2023-07-21T11:46:34.378Z,28.23
2023-07-21T11:49:01.669Z,27.76
2023-07-21T11:51:28.541Z,28.85
2023-07-21T11:54:01.235Z,28.56
2023-07-21T11:56:29.024Z,28.49
2023-07-21T11:58:55.608Z,28.19
2023-07-21T12:01:22.536Z,29.01
2023-07-21T12:03:49.382Z,28.35
2023-07-21T12:06:16.144Z,28.72
2023-07-21T12:08:42.807Z,28.33
2023-07-21T12:11:09.635Z,28.50
2023-07-21T12:13:36.676Z,29.15
2023-07-21T12:16:04.555Z,28.25
2023-07-21T12:18:31.230Z,28.13
2023-07-21T12:20:58.591Z,28.80
2023-07-21T12:23:25.297Z,29.32
2023-07-21T12:25:51.950Z,28.42
2023-07-21T12:28:18.613Z,28.26
2023-07-21T12:30:45.574Z,28.15
2023-07-21T12:33:12.394Z,29.25
2023-07-21T12:35:39.069Z,28.67
2023-07-21T12:38:06.736Z,29.36
2023-07-21T12:40:33.395Z,29.08
2023-07-21T12:43:00.844Z,28.98
2023-07-21T12:45:27.618Z,28.17
2023-07-21T12:47:54.315Z,28.14
2023-07-21T12:50:21.055Z,29.18
2023-07-21T12:52:47.855Z,28.41
2023-07-21T12:55:14.575Z,28.08
2023-07-21T12:57:41.834Z,28.47
2023-07-21T13:00:12.508Z,29.11
2023-07-21T13:02:39.250Z,29.07
2023-07-21T13:05:07.440Z,29.09
2023-07-21T13:07:35.136Z,28.73
2023-07-21T13:10:01.778Z,29.08
2023-07-21T13:12:28.449Z,28.97
2023-07-21T13:14:55.036Z,29.34
2023-07-21T13:17:21.811Z,28.44
2023-07-21T13:19:50.236Z,28.84
2023-07-21T13:22:17.010Z,28.35
2023-07-21T13:24:45.785Z,28.94
2023-07-21T13:27:14.225Z,29.16
2023-07-21T13:29:40.853Z,29.30
2023-07-21T13:32:08.897Z,29.14
2023-07-21T13:34:35.525Z,28.57
2023-07-21T13:37:02.157Z,28.61
2023-07-21T13:39:29.562Z,28.77
2023-07-21T13:41:56.794Z,28.89
2023-07-21T13:44:23.469Z,29.09
2023-07-21T13:46:50.064Z,27.92
2023-07-21T13:49:18.185Z,29.07
2023-07-21T13:51:46.119Z,28.86
2023-07-21T13:54:14.341Z,28.15
2023-07-21T13:56:41.196Z,29.09
2023-07-21T13:59:07.810Z,29.28
2023-07-21T14:01:34.670Z,29.02
2023-07-21T14:04:01.331Z,28.14
2023-07-21T14:06:28.226Z,28.01
2023-07-21T14:08:55.094Z,28.58
2023-07-21T14:11:22.202Z,28.82
2023-07-21T14:13:49.801Z,28.30
2023-07-21T14:16:16.464Z,28.55
2023-07-21T14:18:43.098Z,28.93
2023-07-21T14:21:09.820Z,28.90
2023-07-21T14:23:36.718Z,27.75
2023-07-21T14:26:03.441Z,28.88
2023-07-21T14:28:30.026Z,28.91
2023-07-21T14:30:57.402Z,28.28
2023-07-21T14:33:24.422Z,28.02
2023-07-21T14:35:50.998Z,28.86
2023-07-21T14:38:20.699Z,28.55
2023-07-21T14:40:48.091Z,28.16
2023-07-21T14:43:14.813Z,28.16
2023-07-21T14:45:41.419Z,28.66
2023-07-21T14:48:08.094Z,28.99
2023-07-21T14:50:34.752Z,28.31
2023-07-21T14:53:01.345Z,28.42
2023-07-21T14:55:27.974Z,28.11
2023-07-21T14:57:54.558Z,29.00
2023-07-21T15:00:23.959Z,28.67
2023-07-21T15:03:04.388Z,28.12
2023-07-21T15:05:31.134Z,29.01
2023-07-21T15:07:57.734Z,28.87
2023-07-21T15:10:24.380Z,28.77
2023-07-21T15:12:50.987Z,29.17
2023-07-21T15:15:17.606Z,29.48
2023-07-21T15:17:44.328Z,29.42
2023-07-21T15:20:17.509Z,28.31
2023-07-21T15:22:45.916Z,28.74
2023-07-21T15:25:13.597Z,28.68
2023-07-21T15:27:40.245Z,29.61
2023-07-21T15:30:07.617Z,28.62
2023-07-21T15:32:34.408Z,28.87
2023-07-21T15:35:01.377Z,29.50
2023-07-21T15:37:28.061Z,29.61
2023-07-21T15:39:56.348Z,29.30
2023-07-21T15:42:22.980Z,28.49
2023-07-21T15:44:51.304Z,28.49
2023-07-21T15:47:18.136Z,28.43
2023-07-21T15:49:51.884Z,28.55
2023-07-21T15:52:18.906Z,28.90
2023-07-21T15:54:46.259Z,28.73
2023-07-21T15:57:12.841Z,29.47
2023-07-21T15:59:39.481Z,28.45
2023-07-21T16:02:06.507Z,28.67
2023-07-21T16:04:33.220Z,28.42
2023-07-21T16:06:59.878Z,29.35
2023-07-21T16:09:26.486Z,28.76
2023-07-21T16:11:53.109Z,28.97
2023-07-21T16:14:20.838Z,29.33
2023-07-21T16:16:47.764Z,28.69
2023-07-21T16:19:14.508Z,29.42
2023-07-21T16:21:41.501Z,28.90
2023-07-21T16:24:08.260Z,29.19
2023-07-21T16:26:36.466Z,29.81
2023-07-21T16:29:03.103Z,29.86
2023-07-21T16:31:29.753Z,29.39
2023-07-21T16:33:56.566Z,28.87
2023-07-21T16:36:23.198Z,28.60
2023-07-21T16:38:50.114Z,29.22
2023-07-21T16:41:17.261Z,29.26
2023-07-21T16:43:43.944Z,29.25
2023-07-21T16:46:10.659Z,28.63
2023-07-21T16:48:37.425Z,28.33
2023-07-21T16:51:08.294Z,29.06
2023-07-21T16:53:34.954Z,29.18
2023-07-21T16:56:08.698Z,28.76
2023-07-21T16:58:39.233Z,29.41
2023-07-21T17:01:11.010Z,29.06
2023-07-21T17:03:38.215Z,29.14
2023-07-21T17:06:04.952Z,28.62
2023-07-21T17:08:31.884Z,28.51
2023-07-21T17:11:00.308Z,29.18
2023-07-21T17:13:27.477Z,28.54
2023-07-21T17:15:59.638Z,28.71
2023-07-21T17:18:26.318Z,28.45
2023-07-21T17:20:54.770Z,28.88
2023-07-21T17:23:21.969Z,28.57
2023-07-21T17:25:48.642Z,29.19
2023-07-21T17:28:15.263Z,28.55
2023-07-21T17:30:41.908Z,28.83
2023-07-21T17:33:08.628Z,28.52
2023-07-21T17:35:35.295Z,28.62
2023-07-21T17:38:02.393Z,28.91
2023-07-21T17:40:29.012Z,29.00
2023-07-21T17:42:55.601Z,28.01
2023-07-21T17:45:24.665Z,27.83
2023-07-21T17:47:51.591Z,28.98
2023-07-21T17:50:18.245Z,27.89
2023-07-21T17:52:44.913Z,29.03
2023-07-21T17:55:11.743Z,28.13
2023-07-21T17:57:39.339Z,28.82
2023-07-21T18:00:08.852Z,28.11
2023-07-21T18:02:35.569Z,28.32
2023-07-21T18:05:12.205Z,28.69
2023-07-21T18:07:38.805Z,27.85
2023-07-21T18:10:05.674Z,28.68
2023-07-21T18:12:32.384Z,28.64
2023-07-21T18:14:59.006Z,28.21
2023-07-21T18:17:25.746Z,28.54
2023-07-21T18:19:53.280Z,28.30
2023-07-21T18:22:19.934Z,28.25
2023-07-21T18:24:46.646Z,27.78
2023-07-21T18:27:13.354Z,28.20
2023-07-21T18:29:40.094Z,28.82
2023-07-21T18:32:07.071Z,28.05
2023-07-21T18:34:33.752Z,28.54
2023-07-21T18:37:00.332Z,28.61
2023-07-21T18:39:26.965Z,27.95
2023-07-21T18:41:53.613Z,28.82
2023-07-21T18:44:20.314Z,28.09
2023-07-21T18:46:47.009Z,28.79
2023-07-21T18:49:13.705Z,29.04
2023-07-21T18:51:40.361Z,28.64
2023-07-21T18:54:07.036Z,27.90
2023-07-21T18:56:33.680Z,28.56
2023-07-21T18:59:01.330Z,28.43
2023-07-21T19:01:31.600Z,28.80
2023-07-21T19:03:58.798Z,27.86
2023-07-21T19:06:25.424Z,27.76
2023-07-21T19:08:52.047Z,27.96
2023-07-21T19:11:19.053Z,28.61
2023-07-21T19:13:45.691Z,28.97
2023-07-21T19:16:12.358Z,29.01
2023-07-21T19:18:40.169Z,28.13
2023-07-21T19:21:07.259Z,28.03
2023-07-21T19:23:36.331Z,29.14
2023-07-21T19:26:02.933Z,29.06
2023-07-21T19:28:30.760Z,28.93
2023-07-21T19:30:57.788Z,27.85
2023-07-21T19:33:24.476Z,28.87
2023-07-21T19:35:51.511Z,28.99
2023-07-21T19:38:19.268Z,28.87
2023-07-21T19:40:45.872Z,28.42
2023-07-21T19:43:12.472Z,28.78
2023-07-21T19:45:39.835Z,28.42
2023-07-21T19:48:07.980Z,28.89
2023-07-21T19:50:35.865Z,28.11
2023-07-21T19:53:02.646Z,27.83
2023-07-21T19:55:29.269Z,28.21
2023-07-21T19:57:55.896Z,27.68
2023-07-21T20:00:22.608Z,27.74
2023-07-21T20:02:49.355Z,27.69
2023-07-21T20:05:16.144Z,28.11
2023-07-21T20:07:42.754Z,27.95
2023-07-21T20:10:09.631Z,28.78
2023-07-21T20:12:36.288Z,28.82
2023-07-21T20:15:03.008Z,28.18
2023-07-21T20:17:29.692Z,28.68
2023-07-21T20:19:56.430Z,28.05
2023-07-21T20:22:23.071Z,28.90
2023-07-21T20:24:49.704Z,27.96
2023-07-21T20:27:16.392Z,28.33
2023-07-21T20:29:43.017Z,28.04
2023-07-21T20:32:09.689Z,28.17
2023-07-21T20:34:36.370Z,28.22
2023-07-21T20:37:03.072Z,28.39
2023-07-21T20:39:29.751Z,27.66
2023-07-21T20:41:56.379Z,28.58
2023-07-21T20:44:23.128Z,28.02
2023-07-21T20:46:49.750Z,27.93
2023-07-21T20:49:16.572Z,28.12
2023-07-21T20:51:43.204Z,28.27
2023-07-21T20:54:09.875Z,28.24
2023-07-21T20:56:36.479Z,28.59
2023-07-21T20:59:04.411Z,28.95
2023-07-21T21:01:32.600Z,28.81
2023-07-21T21:03:59.351Z,27.81
2023-07-21T21:06:26.152Z,27.65
2023-07-21T21:08:52.994Z,27.63
2023-07-21T21:11:19.599Z,27.61
2023-07-21T21:13:46.362Z,27.60
2023-07-21T21:16:13.009Z,28.55
2023-07-21T21:18:39.772Z,28.65
2023-07-21T21:21:06.680Z,28.62
2023-07-21T21:23:33.302Z,27.47
2023-07-21T21:25:59.944Z,27.94
2023-07-21T21:28:26.776Z,27.47
2023-07-21T21:31:00.266Z,27.84
2023-07-21T21:33:27.536Z,27.48
2023-07-21T21:35:55.750Z,28.28
2023-07-21T21:38:22.390Z,28.51
2023-07-21T21:40:49.008Z,28.00
2023-07-21T21:43:15.894Z,27.30
2023-07-21T21:45:42.599Z,27.53
2023-07-21T21:48:09.297Z,28.11
2023-07-21T21:50:35.938Z,27.55
2023-07-21T21:53:02.609Z,27.68
2023-07-21T21:55:29.236Z,28.72
2023-07-21T21:57:55.839Z,28.00
2023-07-21T22:00:22.497Z,28.50
2023-07-21T22:02:49.301Z,27.41
2023-07-21T22:05:15.989Z,27.98
2023-07-21T22:07:42.739Z,28.40
2023-07-21T22:10:09.771Z,27.58
2023-07-21T22:12:36.458Z,28.54
2023-07-21T22:15:03.060Z,28.41
2023-07-21T22:17:29.850Z,27.46
2023-07-21T22:20:09.461Z,27.35
2023-07-21T22:22:38.372Z,27.37
2023-07-21T22:25:06.514Z,27.31
2023-07-21T22:27:33.665Z,27.92
2023-07-21T22:30:00.367Z,27.42
2023-07-21T22:32:26.996Z,27.69
2023-07-21T22:34:53.691Z,27.34
2023-07-21T22:37:20.325Z,28.17
2023-07-21T22:39:46.936Z,27.56
2023-07-21T22:42:13.565Z,27.53
2023-07-21T22:44:40.182Z,27.72
2023-07-21T22:47:06.920Z,27.84
2023-07-21T22:49:33.536Z,28.51
2023-07-21T22:52:00.144Z,27.79
2023-07-21T22:54:26.759Z,27.96
2023-07-21T22:56:53.367Z,27.41
2023-07-21T22:59:20.058Z,28.80
2023-07-21T23:01:46.686Z,28.03
2023-07-21T23:04:13.327Z,28.55
2023-07-21T23:06:40.871Z,28.25
2023-07-21T23:09:08.694Z,27.33
2023-07-21T23:11:35.318Z,28.22
2023-07-21T23:14:01.889Z,27.48
2023-07-21T23:16:28.863Z,27.91
2023-07-21T23:18:55.811Z,28.72
2023-07-21T23:21:22.435Z,28.44
2023-07-21T23:23:49.022Z,28.04
2023-07-21T23:26:15.625Z,28.58
2023-07-21T23:28:42.424Z,28.56
2023-07-21T23:31:09.349Z,28.20
2023-07-21T23:33:36.029Z,28.69
2023-07-21T23:36:02.698Z,28.72
2023-07-21T23:38:30.278Z,28.57
2023-07-21T23:40:57.238Z,27.44
2023-07-21T23:43:24.322Z,27.80
2023-07-21T23:45:55.051Z,27.25
2023-07-21T23:48:26.123Z,28.51
2023-07-21T23:50:52.760Z,27.98
2023-07-21T23:53:19.363Z,27.73
2023-07-21T23:55:46.055Z,27.96
2023-07-21T23:58:12.677Z,28.64
